Time;durP1;ratioP1;P1;durP2;ratioP2;P2;SDS_P1;SDS_P2;PMS_P1;PMS_P2;Temp;Humidity;BMP_temperature;BMP_pressure;BME280_temperature;BME280_humidity;BME280_pressure;Samples;Min_cycle;Max_cycle;Signal;HPM_P1;HPM_P2
2023/04/05 00:01:10;;;;;;;;;15.67;14.00;;;;;6.58;89.59;101894.00;4982149;28;46295;-84
2023/04/05 00:03:36;;;;;;;;;21.00;20.00;;;;;6.59;89.75;101884.81;4984664;28;45574;-82
2023/04/05 00:06:04;;;;;;;;;22.75;18.50;;;;;6.55;89.85;101892.44;4957634;28;45732;-81
2023/04/05 00:08:30;;;;;;;;;16.67;15.67;;;;;6.54;89.51;101897.03;4978756;28;45752;-80
2023/04/05 00:10:57;;;;;;;;;22.67;18.67;;;;;6.42;89.87;101883.78;4975668;28;45785;-82
2023/04/05 00:13:22;;;;;;;;;22.25;19.75;;;;;6.46;89.62;101904.25;4979916;28;45421;-81
2023/04/05 00:15:48;;;;;;;;;16.00;14.00;;;;;6.46;90.02;101896.09;4989659;28;45473;-83
2023/04/05 00:18:23;;;;;;;;;17.00;16.25;;;;;6.30;89.94;101877.66;4993696;28;45488;-83
2023/04/05 00:20:52;;;;;;;;;29.75;19.50;;;;;6.41;89.70;101893.81;4969919;28;46875;-84
2023/04/05 00:23:19;;;;;;;;;25.75;21.75;;;;;6.36;89.77;101886.09;4998926;28;45400;-83
2023/04/05 00:25:46;;;;;;;;;15.33;14.33;;;;;6.41;89.91;101891.09;4984465;28;45917;-83
2023/04/05 00:28:12;;;;;;;;;13.33;13.33;;;;;6.34;89.54;101879.94;4995305;28;45425;-86
2023/04/05 00:30:38;;;;;;;;;18.67;17.67;;;;;6.39;89.13;101895.81;4994599;28;45733;-82
2023/04/05 00:33:03;;;;;;;;;21.25;18.00;;;;;6.37;89.72;101889.69;4999954;28;45601;-83
2023/04/05 00:35:29;;;;;;;;;18.33;13.00;;;;;6.35;89.10;101894.44;5001741;28;45478;-85
2023/04/05 00:37:55;;;;;;;;;19.67;17.00;;;;;6.33;89.67;101891.88;4999171;28;46732;-80
2023/04/05 00:40:21;;;;;;;;;23.33;14.67;;;;;6.32;89.22;101894.75;5005702;28;45512;-80
2023/04/05 00:42:47;;;;;;;;;21.00;17.67;;;;;6.26;90.85;101874.41;4984949;28;46099;-80
2023/04/05 00:45:13;;;;;;;;;22.25;21.25;;;;;6.28;91.90;101885.16;4979797;28;45658;-81
2023/04/05 00:47:40;;;;;;;;;20.25;18.00;;;;;6.23;92.78;101876.56;4993231;28;46002;-81
2023/04/05 00:50:08;;;;;;;;;26.75;20.50;;;;;6.18;93.26;101879.75;4991206;28;46348;-81
2023/04/05 00:52:34;;;;;;;;;22.50;21.25;;;;;6.05;93.83;101860.19;4991752;28;45870;-80
2023/04/05 00:55:00;;;;;;;;;24.50;22.75;;;;;6.08;94.35;101870.75;4995434;28;45839;-80
2023/04/05 00:57:25;;;;;;;;;23.00;21.25;;;;;6.06;96.24;101875.53;4990762;28;45759;-79
2023/04/05 00:59:51;;;;;;;;;32.00;26.75;;;;;5.99;96.44;101870.69;4998241;28;47709;-81
2023/04/05 01:02:30;;;;;;;;;25.50;22.50;;;;;5.96;98.60;101867.38;4995071;28;45501;-80
2023/04/05 01:05:01;;;;;;;;;30.00;27.25;;;;;5.88;98.35;101873.56;4988617;28;46423;-81
2023/04/05 01:07:46;;;;;;;;;31.00;28.50;;;;;5.83;99.08;101865.84;4993575;28;45479;-81
2023/04/05 01:10:15;;;;;;;;;34.25;31.00;;;;;5.78;99.86;101875.50;4996466;28;45654;-80
2023/04/05 01:12:41;;;;;;;;;30.00;25.25;;;;;5.74;100.00;101874.91;4992637;28;45912;-79
2023/04/05 01:15:07;;;;;;;;;42.75;33.75;;;;;5.64;100.00;101850.47;4994101;28;45546;-79
2023/04/05 01:17:38;;;;;;;;;32.75;29.50;;;;;5.62;100.00;101849.75;4993748;28;45681;-80
2023/04/05 01:20:09;;;;;;;;;32.50;28.25;;;;;5.60;100.00;101851.78;4997111;28;45477;-80
2023/04/05 01:22:50;;;;;;;;;37.75;27.25;;;;;5.56;100.00;101844.91;4967945;28;45839;-80
2023/04/05 01:25:50;;;;;;;;;30.25;26.00;;;;;5.52;100.00;101853.50;4992463;28;45807;-79
2023/04/05 01:28:51;;;;;;;;;31.00;27.75;;;;;5.47;100.00;101859.41;4999251;28;45754;-80
2023/04/05 01:31:20;;;;;;;;;39.00;29.25;;;;;5.44;100.00;101852.38;4991652;28;46128;-79
2023/04/05 01:33:54;;;;;;;;;35.50;25.75;;;;;5.37;100.00;101837.66;4993210;28;45504;-80
2023/04/05 01:36:28;;;;;;;;;40.00;32.00;;;;;5.33;100.00;101840.81;4990150;28;45429;-79
2023/04/05 01:38:54;;;;;;;;;34.00;27.75;;;;;5.28;100.00;101835.81;4988587;28;45746;-80
2023/04/05 01:41:21;;;;;;;;;31.00;25.75;;;;;5.17;100.00;101822.41;4995563;28;45612;-78
2023/04/05 01:43:46;;;;;;;;;30.75;26.75;;;;;5.21;100.00;101834.69;5004536;28;45736;-79
2023/04/05 01:46:12;;;;;;;;;31.75;28.00;;;;;5.20;100.00;101835.72;5013410;28;45335;-80
2023/04/05 01:48:38;;;;;;;;;29.75;25.50;;;;;5.20;100.00;101827.56;4977362;28;45433;-80
2023/04/05 01:51:04;;;;;;;;;31.50;30.50;;;;;5.18;100.00;101835.88;4995478;28;45745;-80
2023/04/05 01:53:29;;;;;;;;;31.25;29.25;;;;;5.02;100.00;101811.97;4994083;28;45436;-80
2023/04/05 01:56:00;;;;;;;;;29.00;25.75;;;;;5.08;100.00;101833.16;4994915;28;47440;-82
2023/04/05 01:58:26;;;;;;;;;35.25;27.00;;;;;4.88;100.00;101798.84;4994427;28;45476;-80
2023/04/05 02:00:54;;;;;;;;;29.75;25.25;;;;;5.07;100.00;101836.84;4994573;28;46566;-79
2023/04/05 02:03:20;;;;;;;;;37.50;28.25;;;;;5.05;100.00;101830.72;4991414;28;45804;-81
2023/04/05 02:05:45;;;;;;;;;32.00;25.75;;;;;5.01;100.00;101828.44;4989244;28;45522;-81
2023/04/05 02:08:12;;;;;;;;;31.25;27.50;;;;;5.06;100.00;101832.44;4995973;28;50637;-81
2023/04/05 02:10:37;;;;;;;;;28.75;25.25;;;;;5.04;100.00;101820.00;4981913;28;47000;-80
2023/04/05 02:13:02;;;;;;;;;34.00;29.25;;;;;5.03;100.00;101821.88;4982267;28;45457;-79
2023/04/05 02:15:28;;;;;;;;;39.00;32.75;;;;;5.01;100.00;101818.41;4998099;28;45472;-81
2023/04/05 02:17:54;;;;;;;;;34.75;27.50;;;;;5.00;100.00;101814.00;4992567;28;45761;-81
2023/04/05 02:20:19;;;;;;;;;31.25;27.25;;;;;4.94;100.00;101807.28;4991522;28;46109;-80
2023/04/05 02:22:46;;;;;;;;;31.25;26.75;;;;;4.97;100.00;101816.13;4980797;28;45806;-81
2023/04/05 02:25:12;;;;;;;;;34.75;25.75;;;;;4.97;100.00;101813.41;4991523;28;45794;-80
2023/04/05 02:27:38;;;;;;;;;34.25;27.75;;;;;4.94;100.00;101801.00;4993268;28;45416;-81
2023/04/05 02:30:04;;;;;;;;;30.75;29.00;;;;;4.89;100.00;101803.28;5003093;28;46931;-80
2023/04/05 02:32:30;;;;;;;;;32.00;27.50;;;;;4.81;100.00;101789.56;5004697;28;45810;-79
2023/04/05 02:34:57;;;;;;;;;26.00;23.25;;;;;4.92;100.00;101808.41;4996405;28;45586;-80
2023/04/05 02:37:24;;;;;;;;;35.75;29.75;;;;;4.87;100.00;101805.28;4994784;28;45898;-80
2023/04/05 02:39:50;;;;;;;;;33.25;29.25;;;;;4.86;100.00;101798.97;4993302;28;48022;-80
2023/04/05 02:42:15;;;;;;;;;25.00;23.75;;;;;4.85;100.00;101801.84;4983576;28;45352;-80
2023/04/05 02:44:40;;;;;;;;;32.25;30.00;;;;;4.81;100.00;101795.00;4990535;28;46112;-74
2023/04/05 02:47:06;;;;;;;;;31.25;26.00;;;;;4.72;100.00;101785.84;4979789;28;45609;-75
2023/04/05 02:49:31;;;;;;;;;36.00;28.00;;;;;4.79;100.00;101795.16;4994476;28;46381;-74
2023/04/05 02:51:56;;;;;;;;;28.25;22.75;;;;;4.76;100.00;101792.69;4981697;28;45736;-75
2023/04/05 02:54:22;;;;;;;;;32.75;27.50;;;;;4.75;100.00;101797.28;4994089;28;45700;-73
2023/04/05 02:56:48;;;;;;;;;26.75;24.50;;;;;4.71;100.00;101790.41;5002073;28;45381;-72
2023/04/05 02:59:14;;;;;;;;;34.25;24.50;;;;;4.69;100.00;101797.88;4989499;28;47172;-72
2023/04/05 03:01:43;;;;;;;;;30.50;25.50;;;;;4.56;100.00;101781.00;4993938;28;45714;-73
2023/04/05 03:04:13;;;;;;;;;28.50;25.00;;;;;4.62;100.00;101794.00;4990532;28;45705;-75
2023/04/05 03:06:38;;;;;;;;;32.25;25.75;;;;;4.56;100.00;101797.31;5007626;28;45509;-75
2023/04/05 03:09:04;;;;;;;;;32.25;25.50;;;;;4.52;100.00;101798.56;4990636;28;46411;-75
2023/04/05 03:11:30;;;;;;;;;34.00;27.75;;;;;4.48;100.00;101789.88;5001819;28;45458;-74
2023/04/05 03:13:56;;;;;;;;;28.25;24.25;;;;;4.36;100.00;101778.28;5004532;28;45940;-75
2023/04/05 03:16:21;;;;;;;;;32.50;28.50;;;;;4.49;100.00;101791.59;4978701;28;46026;-75
2023/04/05 03:18:48;;;;;;;;;34.75;25.50;;;;;4.49;100.00;101790.72;4994533;28;45635;-75
2023/04/05 03:21:16;;;;;;;;;32.00;25.50;;;;;4.41;100.00;101777.84;4997885;28;45568;-73
2023/04/05 03:23:45;;;;;;;;;28.25;27.00;;;;;4.43;100.00;101792.13;4975768;28;45667;-75
2023/04/05 03:26:11;;;;;;;;;26.75;25.25;;;;;4.37;100.00;101792.72;4977039;28;46666;-75
2023/04/05 03:28:37;;;;;;;;;29.25;24.25;;;;;4.35;100.00;101795.56;4983094;28;48332;-75
2023/04/05 03:31:02;;;;;;;;;28.25;28.25;;;;;4.34;100.00;101802.03;4995305;28;46019;-74
2023/04/05 03:33:28;;;;;;;;;34.25;26.50;;;;;4.31;100.00;101796.88;4992068;28;45487;-75
2023/04/05 03:35:53;;;;;;;;;33.75;25.25;;;;;4.26;100.00;101796.44;4994070;28;45661;-75
2023/04/05 03:38:18;;;;;;;;;33.25;28.75;;;;;4.27;100.00;101800.88;4986554;28;48507;-73
2023/04/05 03:40:44;;;;;;;;;33.50;27.75;;;;;4.26;100.00;101804.56;4991627;28;45499;-74
2023/04/05 03:43:10;;;;;;;;;36.00;27.75;;;;;4.27;100.00;101800.00;4989857;28;45449;-71
2023/04/05 03:45:35;;;;;;;;;27.75;24.25;;;;;4.18;100.00;101788.16;4999139;28;45594;-73
2023/04/05 03:48:01;;;;;;;;;34.75;28.00;;;;;4.27;100.00;101802.72;4979463;28;46201;-74
2023/04/05 03:50:27;;;;;;;;;32.50;24.25;;;;;4.20;100.00;101788.84;4993703;28;45814;-74
2023/04/05 03:52:53;;;;;;;;;28.75;26.50;;;;;4.24;100.00;101804.72;4992698;28;45732;-75
2023/04/05 03:55:19;;;;;;;;;29.00;25.50;;;;;4.22;100.00;101795.00;4992490;28;45708;-74
2023/04/05 03:57:44;;;;;;;;;30.25;26.25;;;;;4.07;100.00;101770.09;5002292;28;46325;-73
2023/04/05 04:00:14;;;;;;;;;32.25;30.25;;;;;4.21;100.00;101805.00;4976020;28;45719;-75
2023/04/05 04:02:43;;;;;;;;;31.25;29.00;;;;;4.18;100.00;101802.56;4994680;28;45772;-77
2023/04/05 04:05:13;;;;;;;;;29.25;26.00;;;;;4.17;100.00;101800.84;5003156;28;46020;-77
2023/04/05 04:07:40;;;;;;;;;33.00;26.50;;;;;3.99;100.00;101764.53;4992878;28;46596;-78
2023/04/05 04:10:07;;;;;;;;;32.50;28.50;;;;;4.13;100.00;101790.41;4991339;28;45843;-74
2023/04/05 04:12:32;;;;;;;;;35.00;28.75;;;;;4.09;100.00;101783.53;4992078;28;45341;-77
2023/04/05 04:14:58;;;;;;;;;36.25;31.75;;;;;4.09;100.00;101784.41;5005337;28;45654;-74
2023/04/05 04:17:32;;;;;;;;;34.25;27.50;;;;;4.03;100.00;101777.69;5003676;28;46003;-78
2023/04/05 04:19:59;;;;;;;;;27.00;24.00;;;;;4.06;100.00;101793.69;4990856;28;45551;-76
2023/04/05 04:22:31;;;;;;;;;34.50;27.50;;;;;4.01;100.00;101781.53;4994659;28;45561;-78
2023/04/05 04:25:03;;;;;;;;;36.75;28.75;;;;;4.03;100.00;101793.97;4986535;28;45745;-76
2023/04/05 04:27:34;;;;;;;;;36.25;28.75;;;;;4.02;100.00;101800.41;5000825;28;46465;-76
2023/04/05 04:30:02;;;;;;;;;36.25;26.50;;;;;4.05;100.00;101796.53;4990408;28;45413;-75
2023/04/05 04:32:46;;;;;;;;;39.00;30.25;;;;;4.00;100.00;101786.13;4992556;28;45878;-76
2023/04/05 04:35:19;;;;;;;;;35.00;28.75;;;;;3.94;100.00;101775.81;4986111;28;45868;-77
2023/04/05 04:37:56;;;;;;;;;35.75;32.75;;;;;3.87;100.00;101767.38;4992163;28;46200;-75
2023/04/05 04:40:24;;;;;;;;;38.25;29.00;;;;;3.97;100.00;101780.97;4994193;28;45773;-75
2023/04/05 04:42:50;;;;;;;;;37.00;31.50;;;;;3.97;100.00;101782.84;4998761;28;45407;-75
2023/04/05 04:45:17;;;;;;;;;38.75;34.00;;;;;3.95;100.00;101782.97;4994426;28;45398;-75
2023/04/05 04:47:44;;;;;;;;;39.75;31.75;;;;;3.97;100.00;101786.41;4991252;28;45697;-77
2023/04/05 04:50:10;;;;;;;;;35.75;27.25;;;;;3.85;100.00;101769.38;4966155;28;45544;-78
2023/04/05 04:52:37;;;;;;;;;38.50;30.00;;;;;3.95;100.00;101787.53;5007761;28;45947;-77
2023/04/05 04:55:03;;;;;;;;;29.50;27.00;;;;;3.81;100.00;101758.94;5006145;28;45898;-77
2023/04/05 04:57:29;;;;;;;;;32.50;28.75;;;;;3.77;100.00;101754.78;5007128;28;45793;-76
2023/04/05 04:59:54;;;;;;;;;38.25;29.00;;;;;3.75;100.00;101763.06;4994635;28;45586;-77
2023/04/05 05:02:26;;;;;;;;;39.00;32.50;;;;;3.80;100.00;101768.06;5002641;28;45422;-78
2023/04/05 05:04:52;;;;;;;;;33.00;29.50;;;;;3.79;100.00;101774.50;5001273;28;45769;-78
2023/04/05 05:07:18;;;;;;;;;30.50;27.25;;;;;3.77;100.00;101763.75;5002406;28;45691;-77
2023/04/05 05:09:44;;;;;;;;;30.25;27.25;;;;;3.88;100.00;101776.38;5004820;28;45477;-77
2023/04/05 05:12:09;;;;;;;;;31.50;29.25;;;;;3.83;100.00;101773.22;5009526;28;45788;-79
2023/04/05 05:14:35;;;;;;;;;31.00;29.25;;;;;3.85;100.00;101774.81;5006276;28;46345;-78
2023/04/05 05:17:00;;;;;;;;;32.75;28.00;;;;;3.84;100.00;101770.34;4989549;28;45521;-73
2023/04/05 05:19:27;;;;;;;;;37.00;32.50;;;;;3.77;100.00;101762.91;4986879;28;45552;-80
2023/04/05 05:21:53;;;;;;;;;33.50;31.25;;;;;3.91;100.00;101786.09;4991191;28;45360;-76
2023/04/05 05:24:19;;;;;;;;;32.25;31.50;;;;;3.95;100.00;101771.25;4988875;28;45820;-76
2023/04/05 05:26:45;;;;;;;;;38.75;32.75;;;;;3.97;100.00;101758.41;4989071;28;45459;-75
2023/04/05 05:29:10;;;;;;;;;41.25;33.50;;;;;4.03;100.00;101753.25;4992732;28;47146;-77
2023/04/05 05:31:36;;;;;;;;;38.50;29.00;;;;;4.22;100.00;101773.28;4990488;28;46011;-78
2023/04/05 05:34:01;;;;;;;;;36.25;29.25;;;;;4.39;100.00;101772.56;4988693;28;46037;-77
2023/04/05 05:36:27;;;;;;;;;33.75;29.25;;;;;4.65;100.00;101760.25;4953030;28;47318;-76
2023/04/05 05:38:53;;;;;;;;;35.25;28.75;;;;;4.93;100.00;101763.94;4988047;28;45558;-75
2023/04/05 05:41:20;;;;;;;;;36.25;31.75;;;;;5.28;100.00;101760.53;4989286;28;45931;-75
2023/04/05 05:43:46;;;;;;;;;33.00;28.00;;;;;5.72;100.00;101767.19;4988058;28;45539;-76
2023/04/05 05:46:11;;;;;;;;;30.75;27.75;;;;;6.13;100.00;101760.38;4989178;28;46282;-78
2023/04/05 05:48:37;;;;;;;;;37.25;30.75;;;;;6.67;100.00;101773.13;4989686;28;45819;-78
2023/04/05 05:51:08;;;;;;;;;36.00;26.25;;;;;7.01;100.00;101764.19;5004191;28;46143;-78
2023/04/05 05:53:35;;;;;;;;;35.00;27.50;;;;;7.47;100.00;101772.09;4996380;28;46090;-77
2023/04/05 05:56:00;;;;;;;;;44.50;34.25;;;;;7.89;100.00;101763.03;5001666;28;45727;-79
2023/04/05 05:58:26;;;;;;;;;35.75;25.50;;;;;8.53;100.00;101782.50;4989655;28;46111;-79
2023/04/05 06:00:55;;;;;;;;;32.75;29.00;;;;;9.10;100.00;101769.81;4997016;28;45452;-77
2023/04/05 06:03:22;;;;;;;;;36.25;32.00;;;;;9.57;100.00;101763.53;4973056;28;46175;-77
2023/04/05 06:05:56;;;;;;;;;35.67;31.33;;;;;10.14;100.00;101780.72;4995127;28;46570;-77
2023/04/05 06:08:23;;;;;;;;;36.50;31.50;;;;;10.54;100.00;101749.44;4985585;28;45768;-79
2023/04/05 06:10:49;;;;;;;;;31.67;30.33;;;;;11.20;100.00;101772.69;4986720;28;45782;-78
2023/04/05 06:13:16;;;;;;;;;35.00;31.00;;;;;11.62;97.55;101760.19;4984969;28;45535;-77
2023/04/05 06:15:42;;;;;;;;;33.00;28.00;;;;;12.20;95.37;101765.81;4984618;28;46852;-78
2023/04/05 06:18:08;;;;;;;;;33.00;28.67;;;;;12.64;92.86;101780.41;4988005;28;45585;-78
2023/04/05 06:20:34;;;;;;;;;34.67;29.33;;;;;13.01;90.74;101783.94;4983306;28;45507;-77
2023/04/05 06:23:00;;;;;;;;;30.67;27.33;;;;;13.28;87.47;101765.69;4987218;28;45861;-78
2023/04/05 06:25:25;;;;;;;;;34.67;30.67;;;;;13.64;85.81;101783.94;4974666;28;45673;-80
2023/04/05 06:27:51;;;;;;;;;26.67;24.33;;;;;13.91;84.73;101781.31;4984775;28;45508;-77
2023/04/05 06:30:16;;;;;;;;;33.33;29.67;;;;;14.27;84.17;101788.44;4976296;28;45555;-77
2023/04/05 06:32:42;;;;;;;;;32.33;29.33;;;;;14.70;83.30;101782.63;4996499;28;45798;-78
2023/04/05 06:35:07;;;;;;;;;30.00;26.00;;;;;15.12;80.19;101771.31;4992199;28;45753;-77
2023/04/05 06:37:33;;;;;;;;;34.33;26.67;;;;;15.82;79.26;101781.84;4989083;28;45809;-77
2023/04/05 06:39:58;;;;;;;;;34.00;30.67;;;;;16.20;73.84;101765.28;4994048;28;45641;-78
2023/04/05 06:42:24;;;;;;;;;32.00;29.67;;;;;16.63;72.45;101776.72;4996186;28;45570;-76
2023/04/05 06:45:03;;;;;;;;;36.67;29.00;;;;;16.85;70.30;101738.41;4992237;28;46279;-84
2023/04/05 06:47:28;;;;;;;;;41.33;32.67;;;;;17.54;67.55;101769.72;5001427;28;45768;-76
2023/04/05 06:49:53;;;;;;;;;34.67;29.33;;;;;17.91;66.10;101775.31;4990109;28;45920;-77
2023/04/05 06:52:19;;;;;;;;;34.33;28.67;;;;;18.11;64.02;101763.97;4993459;28;45861;-77
2023/04/05 06:54:44;;;;;;;;;30.00;23.33;;;;;18.47;62.02;101769.63;4986428;28;45493;-76
2023/04/05 06:57:10;;;;;;;;;33.00;26.00;;;;;18.73;59.92;101776.72;4993985;28;45448;-77
2023/04/05 06:59:35;;;;;;;;;29.67;25.67;;;;;18.91;59.34;101763.81;4976644;28;45864;-76
2023/04/05 07:02:00;;;;;;;;;31.00;27.67;;;;;19.38;58.25;101777.75;4984673;28;45796;-77
2023/04/05 07:04:28;;;;;;;;;29.67;28.67;;;;;19.74;56.51;101771.03;4988768;28;45909;-74
2023/04/05 07:06:53;;;;;;;;;34.00;30.00;;;;;20.20;55.76;101789.84;4993967;28;45840;-77
2023/04/05 07:09:20;;;;;;;;;30.33;28.33;;;;;20.48;53.77;101788.13;4995601;28;45494;-77
2023/04/05 07:11:45;;;;;;;;;30.00;27.00;;;;;20.76;54.04;101787.28;4980855;28;46141;-77
2023/04/05 07:14:11;;;;;;;;;34.33;29.67;;;;;21.09;51.91;101785.59;4991944;28;45480;-78
2023/04/05 07:16:36;;;;;;;;;28.00;26.00;;;;;21.17;50.19;101783.22;4991456;28;45993;-76
2023/04/05 07:19:04;;;;;;;;;30.00;29.00;;;;;21.14;49.68;101778.16;4988656;28;45569;-78
2023/04/05 07:21:33;;;;;;;;;34.67;29.33;;;;;21.16;48.67;101769.53;4980558;28;46181;-78
2023/04/05 07:24:00;;;;;;;;;26.33;25.33;;;;;21.46;48.33;101787.84;4987156;28;47423;-76
2023/04/05 07:26:26;;;;;;;;;26.67;23.67;;;;;21.72;47.89;101794.66;4989021;28;46117;-76
2023/04/05 07:28:52;;;;;;;;;33.00;25.00;;;;;21.81;46.89;101793.13;4989656;28;45961;-79
2023/04/05 07:31:17;;;;;;;;;25.33;22.33;;;;;21.84;46.04;101775.84;4972139;28;45697;-78
2023/04/05 07:33:43;;;;;;;;;29.67;27.00;;;;;22.13;46.14;101778.41;4967790;28;47287;-81
2023/04/05 07:36:08;;;;;;;;;24.67;23.67;;;;;22.36;45.37;101771.69;4970496;28;45420;-76
2023/04/05 07:38:34;;;;;;;;;35.00;26.67;;;;;22.70;43.50;101770.66;4993024;28;45805;-80
2023/04/05 07:40:59;;;;;;;;;27.00;23.00;;;;;23.06;43.23;101766.19;4991163;28;45445;-82
2023/04/05 07:43:25;;;;;;;;;26.00;26.00;;;;;22.52;42.21;101794.25;4988041;28;47946;-80
2023/04/05 07:45:52;;;;;;;;;26.67;25.33;;;;;21.66;44.62;101790.97;4972668;28;45440;-72
2023/04/05 07:48:18;;;;;;;;;29.33;25.67;;;;;20.91;44.97;101762.47;4998585;28;45826;-79
2023/04/05 07:50:46;;;;;;;;;35.33;27.00;;;;;20.14;45.12;101777.75;4992581;28;45473;-79
2023/04/05 07:53:13;;;;;;;;;28.67;25.67;;;;;19.25;47.89;101778.84;4998990;28;45603;-78
2023/04/05 07:55:38;;;;;;;;;28.00;25.33;;;;;18.32;48.66;101768.16;4997573;28;45564;-79
2023/04/05 07:58:04;;;;;;;;;28.00;28.00;;;;;17.55;48.86;101781.69;4996749;28;45405;-77
2023/04/05 08:00:29;;;;;;;;;31.33;30.00;;;;;16.95;49.58;101788.66;4996461;28;46712;-80
2023/04/05 08:02:54;;;;;;;;;32.00;27.67;;;;;16.32;49.62;101768.19;4994862;28;46503;-79
2023/04/05 08:05:20;;;;;;;;;27.67;26.33;;;;;15.82;51.36;101781.84;4996375;28;45538;-81
2023/04/05 08:07:45;;;;;;;;;27.67;26.67;;;;;15.30;52.13;101774.31;4995650;28;45390;-81
2023/04/05 08:10:11;;;;;;;;;23.33;21.33;;;;;14.91;54.01;101783.44;4977681;28;45887;-81
2023/04/05 08:12:36;;;;;;;;;28.00;26.00;;;;;14.45;53.21;101777.66;4984858;28;48270;-80
2023/04/05 08:15:02;;;;;;;;;29.33;26.33;;;;;14.15;54.25;101782.69;4994748;28;45883;-81
2023/04/05 08:17:28;;;;;;;;;33.33;25.67;;;;;13.76;54.95;101778.69;5002959;28;46288;-78
2023/04/05 08:19:54;;;;;;;;;32.33;25.67;;;;;13.49;55.23;101774.94;4998081;28;45897;-79
2023/04/05 08:22:20;;;;;;;;;33.33;29.33;;;;;13.28;55.40;101786.84;4975498;28;45501;-80
2023/04/05 08:24:45;;;;;;;;;36.33;31.67;;;;;12.98;56.17;101790.66;4998186;28;45512;-80
2023/04/05 08:27:11;;;;;;;;;31.00;27.33;;;;;12.71;58.74;101790.44;4997563;28;45924;-80
2023/04/05 08:29:37;;;;;;;;;35.67;30.67;;;;;12.59;58.24;101791.16;4995978;28;45321;-78
2023/04/05 08:32:03;;;;;;;;;34.33;30.00;;;;;12.50;58.95;101799.53;4995487;28;45983;-78
2023/04/05 08:34:28;;;;;;;;;39.67;30.33;;;;;12.38;59.58;101805.75;5003001;28;45796;-80
2023/04/05 08:36:58;;;;;;;;;34.00;29.00;;;;;12.12;60.36;101794.25;4993804;28;45254;-79
2023/04/05 08:39:24;;;;;;;;;39.67;32.67;;;;;12.00;59.38;101793.03;4999617;28;45517;-79
2023/04/05 08:42:10;;;;;;;;;32.33;27.67;;;;;11.87;60.05;101785.47;4992091;28;45572;-78
2023/04/05 08:44:36;;;;;;;;;27.67;26.00;;;;;11.88;60.92;101798.16;4971281;28;45611;-79
2023/04/05 08:47:02;;;;;;;;;35.67;27.33;;;;;11.91;61.53;101802.41;4982771;28;46101;-78
2023/04/05 08:49:28;;;;;;;;;34.33;30.67;;;;;11.97;62.64;101801.69;4991663;28;46116;-80
2023/04/05 08:51:54;;;;;;;;;33.00;30.33;;;;;11.95;61.11;101809.28;4979359;28;48444;-80
2023/04/05 08:54:20;;;;;;;;;33.00;30.00;;;;;11.82;61.49;101785.19;4995374;28;45779;-81
2023/04/05 08:56:47;;;;;;;;;38.67;29.00;;;;;12.03;61.88;101792.66;4990966;28;45677;-82
2023/04/05 08:59:15;;;;;;;;;33.67;29.33;;;;;13.56;60.95;101790.47;4990629;28;45470;-81
2023/04/05 09:01:42;;;;;;;;;33.00;30.00;;;;;15.49;57.87;101789.16;4999789;28;46031;-81
2023/04/05 09:04:19;;;;;;;;;41.00;36.00;;;;;17.41;54.11;101784.59;5004276;28;45476;-80
2023/04/05 09:06:47;;;;;;;;;41.00;32.67;;;;;19.24;50.82;101768.81;5003921;28;45785;-80
2023/04/05 09:09:14;;;;;;;;;34.33;27.00;;;;;20.86;47.28;101765.16;5002128;28;45908;-80
2023/04/05 09:11:39;;;;;;;;;33.67;25.00;;;;;22.61;44.93;101770.28;4984999;28;46201;-80
2023/04/05 09:14:06;;;;;;;;;31.00;29.00;;;;;23.93;41.64;101765.06;4999223;28;45967;-82
2023/04/05 09:16:36;;;;;;;;;32.67;27.33;;;;;25.28;39.93;101761.28;4998551;28;45938;-83
2023/04/05 09:19:02;;;;;;;;;26.00;22.33;;;;;26.61;37.00;101760.69;5007503;28;45903;-80
2023/04/05 09:21:33;;;;;;;;;26.67;24.67;;;;;27.77;34.72;101749.75;4994147;28;46526;-82
2023/04/05 09:23:59;;;;;;;;;33.00;28.67;;;;;28.70;33.32;101756.94;4999606;28;45534;-79
2023/04/05 09:26:26;;;;;;;;;32.33;26.67;;;;;29.45;30.24;101751.34;4995922;28;45663;-81
2023/04/05 09:28:51;;;;;;;;;56.33;43.67;;;;;30.29;29.08;101753.81;5000283;28;46081;-80
2023/04/05 09:31:29;;;;;;;;;27.67;25.00;;;;;30.74;27.95;101747.38;4983636;28;47033;-81
2023/04/05 09:33:58;;;;;;;;;33.67;27.00;;;;;31.44;27.09;101749.78;4999074;28;46095;-79
2023/04/05 09:36:24;;;;;;;;;30.67;25.33;;;;;32.16;25.89;101736.34;4989886;28;45590;-80
2023/04/05 09:38:50;;;;;;;;;14.67;11.00;;;;;32.44;25.39;101736.88;4996406;28;46158;-82
2023/04/05 09:41:15;;;;;;;;;17.33;9.00;;;;;33.06;24.78;101746.16;4972120;28;46142;-81
2023/04/05 09:43:41;;;;;;;;;20.33;19.67;;;;;32.96;23.14;101740.81;4989584;28;46006;-80
2023/04/05 09:46:33;;;;;;;;;29.67;24.00;;;;;32.72;23.11;101737.34;5000130;28;45871;-81
2023/04/05 09:49:05;;;;;;;;;28.67;25.67;;;;;33.07;22.73;101730.75;4961113;28;45411;-81
2023/04/05 09:51:33;;;;;;;;;31.67;26.67;;;;;33.63;22.93;101729.91;4994708;28;46068;-82
2023/04/05 09:54:04;;;;;;;;;25.00;20.67;;;;;33.60;21.96;101722.88;4975993;28;45393;-84
2023/04/05 09:56:38;;;;;;;;;18.00;16.33;;;;;33.49;21.13;101730.97;4976001;28;45911;-83
2023/04/05 09:59:11;;;;;;;;;22.00;21.00;;;;;33.56;20.99;101727.56;4992412;28;45540;-83
2023/04/05 10:01:37;;;;;;;;;20.33;17.67;;;;;33.83;21.06;101716.91;4987741;28;47352;-83
2023/04/05 10:04:03;;;;;;;;;23.33;19.33;;;;;33.96;20.02;101716.63;4977899;28;45787;-83
2023/04/05 10:06:40;;;;;;;;;19.67;18.33;;;;;33.94;20.24;101721.03;4993506;28;45885;-84
2023/04/05 10:09:07;;;;;;;;;22.67;20.00;;;;;34.21;20.09;101719.63;4971741;28;46383;-81
2023/04/05 10:11:33;;;;;;;;;13.00;13.00;;;;;34.38;19.76;101723.56;5009263;28;45700;-82
2023/04/05 10:14:09;;;;;;;;;22.00;18.67;;;;;34.39;19.28;101716.66;5009930;28;45469;-84
2023/04/05 10:16:49;;;;;;;;;16.33;16.00;;;;;34.32;18.94;101717.22;4991995;28;45696;-84
2023/04/05 10:19:25;;;;;;;;;24.67;22.33;;;;;34.49;19.41;101721.91;4990970;28;45560;-84
2023/04/05 10:21:53;;;;;;;;;24.33;20.00;;;;;34.43;18.97;101714.78;4983108;28;46221;-82
2023/04/05 10:24:27;;;;;;;;;24.00;21.00;;;;;34.40;19.26;101713.44;4989423;28;45478;-82
2023/04/05 10:27:20;;;;;;;;;41.67;37.00;;;;;34.37;20.09;101708.47;4983724;28;45538;-85
2023/04/05 10:30:07;;;;;;;;;50.67;40.00;;;;;34.25;20.00;101696.97;4981677;28;45938;-82
2023/04/05 10:33:01;;;;;;;;;32.33;29.33;;;;;34.18;18.93;101703.25;5000235;28;45704;-83
2023/04/05 10:36:01;;;;;;;;;20.33;18.67;;;;;33.90;18.94;101692.41;4995271;28;45807;-81
2023/04/05 10:38:35;;;;;;;;;30.33;27.00;;;;;33.35;19.14;101682.84;4979393;28;46064;-78
2023/04/05 10:41:08;;;;;;;;;29.00;25.00;;;;;33.21;19.02;101685.91;4981713;28;46826;-81
2023/04/05 10:43:36;;;;;;;;;22.33;22.00;;;;;32.69;18.96;101680.38;4992512;28;45729;-81
2023/04/05 10:46:03;;;;;;;;;21.67;19.33;;;;;31.65;18.75;101665.81;4996333;28;45965;-82
2023/04/05 10:48:48;;;;;;;;;30.67;27.67;;;;;31.46;20.14;101673.75;4996999;28;45812;-84
2023/04/05 10:51:14;;;;;;;;;38.33;32.00;;;;;31.36;21.03;101669.22;5007806;28;46675;-81
2023/04/05 10:53:42;;;;;;;;;30.00;24.00;;;;;31.12;20.50;101661.13;4979411;28;47389;-80
2023/04/05 10:56:08;;;;;;;;;27.67;25.67;;;;;30.84;21.07;101666.13;4994277;28;45558;-81
2023/04/05 10:58:35;;;;;;;;;25.00;21.00;;;;;30.42;19.95;101636.06;4977215;28;45833;-82
2023/04/05 11:01:03;;;;;;;;;29.33;26.67;;;;;30.09;20.85;101636.31;4988641;28;46155;-82
2023/04/05 11:03:47;;;;;;;;;22.67;21.67;;;;;29.73;20.98;101676.72;4998866;28;46549;-81
2023/04/05 11:06:31;;;;;;;;;22.00;19.33;;;;;29.12;20.73;101649.69;4990095;28;45956;-82
2023/04/05 11:09:16;;;;;;;;;22.67;20.67;;;;;28.61;20.38;101669.28;4974723;28;45785;-83
2023/04/05 11:11:46;;;;;;;;;24.67;22.33;;;;;27.95;21.35;101659.84;4986488;28;46029;-83
2023/04/05 11:14:22;;;;;;;;;29.33;22.00;;;;;27.15;21.03;101650.19;4997880;28;45541;-83